Flight Sim Network - CYZY Airport Info

    CYZY (Mackenzie Airport)  Login to use Map Selector
   
   Glacier Air - Mackenzie

  RUNWAY INFORMATION    |    Airport Elevation : 2264ft    |    LAT : 55.3044013977  /  LON : -123.132003784
Runway Number 16 / 34 Runway Width 100' Runway Length 5000'
Lighted Runway Yes Runway StatusOpen Runway Surface Asphalt
  CLOSE ALTERNATE AIRPORTS
ICAODistanceAirport NameLongest RWRW SurfaceMAP
CYCQ56NMChetwynd Airport4500FTAsphalt
CYNH59NMHudsons Hope Airport5200FTAsphalt
CYJM67NMPerison4000FTAsphalt
CBX777NMTumbler Ridge Airport4000FTGravel
CAU481NMVanderhoof Airport5018FTAsphalt
CBW386NMFort Grahame Airport5000FTGravel
CAH586NMLeo Creek Airport3900FTGrass
CYXS86NMPrince George Airport11450FTAsphalt
CBZ996NMFraser Lake Airport3900FTAsphalt
CYXJ98NMFt St John6900FTAsphalt
  AIRPORT WEATHER
33°F | 1°C
Temperature
93%
Humidity
30" | 1022mb
Pressure
9sm
Visibility
VFR
Flight Rules
CLR
Initial Clouds
FAIR
Conditions
Wind Info
5/30/24 12:00Z
Updated

CYZY 301200Z AUTO 15002KT 9SM CLR 01/00 A3010 RMK SLP221
  AIRPORT FREQUENCIES
NameFrequency

Powered by Virtual Airlines Manager